sensor_id;sensor_type;location;lat;lon;timestamp;P1;durP1;ratioP1;P2;durP2;ratioP2
7080;SDS011;3582;51.506;11.948;2023-02-28T00:01:02;4.60;;;2.90;;
7080;SDS011;3582;51.506;11.948;2023-02-28T00:03:28;5.10;;;2.70;;
7080;SDS011;3582;51.506;11.948;2023-02-28T00:05:54;4.70;;;2.53;;
7080;SDS011;3582;51.506;11.948;2023-02-28T00:08:20;5.07;;;3.20;;
7080;SDS011;3582;51.506;11.948;2023-02-28T00:10:46;13.57;;;3.97;;
7080;SDS011;3582;51.506;11.948;2023-02-28T00:13:12;3.53;;;3.20;;
7080;SDS011;3582;51.506;11.948;2023-02-28T00:15:38;5.72;;;3.22;;
7080;SDS011;3582;51.506;11.948;2023-02-28T00:18:04;3.25;;;2.78;;
7080;SDS011;3582;51.506;11.948;2023-02-28T00:20:30;4.00;;;3.00;;
7080;SDS011;3582;51.506;11.948;2023-02-28T00:22:56;6.43;;;3.20;;
7080;SDS011;3582;51.506;11.948;2023-02-28T00:25:22;5.80;;;3.60;;
7080;SDS011;3582;51.506;11.948;2023-02-28T00:27:49;3.90;;;3.60;;
7080;SDS011;3582;51.506;11.948;2023-02-28T00:30:16;5.25;;;2.90;;
7080;SDS011;3582;51.506;11.948;2023-02-28T00:32:42;7.32;;;2.97;;
7080;SDS011;3582;51.506;11.948;2023-02-28T00:35:08;6.73;;;3.20;;
7080;SDS011;3582;51.506;11.948;2023-02-28T00:37:34;3.78;;;3.38;;
7080;SDS011;3582;51.506;11.948;2023-02-28T00:40:00;3.92;;;3.63;;
7080;SDS011;3582;51.506;11.948;2023-02-28T00:42:29;3.65;;;3.35;;
7080;SDS011;3582;51.506;11.948;2023-02-28T00:44:55;3.85;;;3.30;;
7080;SDS011;3582;51.506;11.948;2023-02-28T00:47:21;5.22;;;3.10;;
7080;SDS011;3582;51.506;11.948;2023-02-28T00:49:47;4.77;;;3.97;;
7080;SDS011;3582;51.506;11.948;2023-02-28T00:52:13;4.50;;;3.80;;
7080;SDS011;3582;51.506;11.948;2023-02-28T00:54:39;3.70;;;3.40;;
7080;SDS011;3582;51.506;11.948;2023-02-28T00:57:05;3.73;;;3.30;;
7080;SDS011;3582;51.506;11.948;2023-02-28T00:59:31;6.20;;;4.80;;
7080;SDS011;3582;51.506;11.948;2023-02-28T01:01:57;6.60;;;4.43;;
7080;SDS011;3582;51.506;11.948;2023-02-28T01:04:22;4.17;;;3.20;;
7080;SDS011;3582;51.506;11.948;2023-02-28T01:06:48;3.97;;;3.53;;
7080;SDS011;3582;51.506;11.948;2023-02-28T01:09:14;3.70;;;3.20;;
7080;SDS011;3582;51.506;11.948;2023-02-28T01:11:40;4.03;;;3.47;;
7080;SDS011;3582;51.506;11.948;2023-02-28T01:14:09;3.10;;;2.90;;
7080;SDS011;3582;51.506;11.948;2023-02-28T01:16:37;4.78;;;3.40;;
7080;SDS011;3582;51.506;11.948;2023-02-28T01:19:03;4.93;;;2.93;;
7080;SDS011;3582;51.506;11.948;2023-02-28T01:21:29;3.70;;;3.00;;
7080;SDS011;3582;51.506;11.948;2023-02-28T01:23:56;4.75;;;3.30;;
7080;SDS011;3582;51.506;11.948;2023-02-28T01:26:22;6.00;;;3.15;;
7080;SDS011;3582;51.506;11.948;2023-02-28T01:28:49;3.38;;;3.08;;
7080;SDS011;3582;51.506;11.948;2023-02-28T01:31:16;8.00;;;4.22;;
7080;SDS011;3582;51.506;11.948;2023-02-28T01:33:43;3.67;;;2.80;;
7080;SDS011;3582;51.506;11.948;2023-02-28T01:36:10;3.75;;;2.90;;
7080;SDS011;3582;51.506;11.948;2023-02-28T01:38:36;3.38;;;3.08;;
7080;SDS011;3582;51.506;11.948;2023-02-28T01:41:02;3.45;;;2.58;;
7080;SDS011;3582;51.506;11.948;2023-02-28T01:43:29;3.60;;;2.63;;
7080;SDS011;3582;51.506;11.948;2023-02-28T01:45:56;2.95;;;2.65;;
7080;SDS011;3582;51.506;11.948;2023-02-28T01:48:24;3.20;;;2.90;;
7080;SDS011;3582;51.506;11.948;2023-02-28T01:50:51;4.28;;;2.65;;
7080;SDS011;3582;51.506;11.948;2023-02-28T01:53:18;14.02;;;4.22;;
7080;SDS011;3582;51.506;11.948;2023-02-28T01:55:46;6.85;;;3.17;;
7080;SDS011;3582;51.506;11.948;2023-02-28T01:58:12;3.83;;;3.40;;
7080;SDS011;3582;51.506;11.948;2023-02-28T02:00:38;3.22;;;3.03;;
7080;SDS011;3582;51.506;11.948;2023-02-28T02:03:08;6.85;;;3.90;;
7080;SDS011;3582;51.506;11.948;2023-02-28T02:05:35;5.47;;;3.15;;
7080;SDS011;3582;51.506;11.948;2023-02-28T02:08:09;2.33;;;2.08;;
7080;SDS011;3582;51.506;11.948;2023-02-28T02:10:41;2.70;;;2.50;;
7080;SDS011;3582;51.506;11.948;2023-02-28T02:13:25;4.80;;;3.45;;
7080;SDS011;3582;51.506;11.948;2023-02-28T02:18:43;4.50;;;3.40;;
7080;SDS011;3582;51.506;11.948;2023-02-28T02:23:46;4.47;;;3.67;;
7080;SDS011;3582;51.506;11.948;2023-02-28T02:26:26;3.38;;;2.65;;
7080;SDS011;3582;51.506;11.948;2023-02-28T02:28:57;7.22;;;3.63;;
7080;SDS011;3582;51.506;11.948;2023-02-28T02:36:30;33.00;;;8.57;;
7080;SDS011;3582;51.506;11.948;2023-02-28T02:39:02;8.20;;;3.88;;
7080;SDS011;3582;51.506;11.948;2023-02-28T02:46:47;2.90;;;2.60;;
7080;SDS011;3582;51.506;11.948;2023-02-28T02:49:21;3.50;;;2.50;;
7080;SDS011;3582;51.506;11.948;2023-02-28T02:51:48;3.10;;;2.80;;
7080;SDS011;3582;51.506;11.948;2023-02-28T02:54:17;6.18;;;3.42;;
7080;SDS011;3582;51.506;11.948;2023-02-28T02:56:46;6.65;;;3.25;;
7080;SDS011;3582;51.506;11.948;2023-02-28T02:59:13;3.03;;;2.47;;
7080;SDS011;3582;51.506;11.948;2023-02-28T03:01:45;11.98;;;4.88;;
7080;SDS011;3582;51.506;11.948;2023-02-28T03:04:13;3.80;;;3.50;;
7080;SDS011;3582;51.506;11.948;2023-02-28T03:06:41;8.13;;;3.30;;
7080;SDS011;3582;51.506;11.948;2023-02-28T03:09:07;3.17;;;2.70;;
7080;SDS011;3582;51.506;11.948;2023-02-28T03:11:34;3.27;;;3.03;;
7080;SDS011;3582;51.506;11.948;2023-02-28T03:14:13;6.05;;;2.90;;
7080;SDS011;3582;51.506;11.948;2023-02-28T03:19:47;4.15;;;3.28;;
7080;SDS011;3582;51.506;11.948;2023-02-28T03:22:16;7.40;;;3.60;;
7080;SDS011;3582;51.506;11.948;2023-02-28T03:24:55;6.13;;;3.22;;
7080;SDS011;3582;51.506;11.948;2023-02-28T03:29:50;3.60;;;2.87;;
7080;SDS011;3582;51.506;11.948;2023-02-28T03:32:31;3.13;;;2.83;;
7080;SDS011;3582;51.506;11.948;2023-02-28T03:35:13;7.28;;;3.03;;
7080;SDS011;3582;51.506;11.948;2023-02-28T03:37:40;3.92;;;2.90;;
7080;SDS011;3582;51.506;11.948;2023-02-28T03:40:14;5.28;;;2.75;;
7080;SDS011;3582;51.506;11.948;2023-02-28T03:42:42;11.93;;;4.07;;
7080;SDS011;3582;51.506;11.948;2023-02-28T03:45:15;5.65;;;3.58;;
7080;SDS011;3582;51.506;11.948;2023-02-28T03:47:45;3.72;;;3.20;;
7080;SDS011;3582;51.506;11.948;2023-02-28T03:50:14;3.30;;;2.75;;
7080;SDS011;3582;51.506;11.948;2023-02-28T03:52:43;6.75;;;3.20;;
7080;SDS011;3582;51.506;11.948;2023-02-28T03:55:10;4.88;;;2.95;;
7080;SDS011;3582;51.506;11.948;2023-02-28T04:00:07;4.50;;;3.27;;
7080;SDS011;3582;51.506;11.948;2023-02-28T04:02:34;3.65;;;2.30;;
7080;SDS011;3582;51.506;11.948;2023-02-28T04:05:00;3.93;;;3.50;;
7080;SDS011;3582;51.506;11.948;2023-02-28T04:07:31;5.28;;;4.28;;
7080;SDS011;3582;51.506;11.948;2023-02-28T04:09:57;5.68;;;3.00;;
7080;SDS011;3582;51.506;11.948;2023-02-28T04:12:23;4.18;;;3.10;;
7080;SDS011;3582;51.506;11.948;2023-02-28T04:14:49;3.47;;;2.80;;
7080;SDS011;3582;51.506;11.948;2023-02-28T04:17:16;4.00;;;2.90;;
7080;SDS011;3582;51.506;11.948;2023-02-28T04:19:42;6.28;;;3.35;;
7080;SDS011;3582;51.506;11.948;2023-02-28T04:22:08;5.55;;;3.90;;
7080;SDS011;3582;51.506;11.948;2023-02-28T04:24:34;13.77;;;5.20;;
7080;SDS011;3582;51.506;11.948;2023-02-28T04:27:00;11.07;;;3.90;;
7080;SDS011;3582;51.506;11.948;2023-02-28T04:29:27;16.10;;;3.58;;
7080;SDS011;3582;51.506;11.948;2023-02-28T04:31:54;9.95;;;4.45;;
7080;SDS011;3582;51.506;11.948;2023-02-28T04:34:24;6.60;;;4.40;;
7080;SDS011;3582;51.506;11.948;2023-02-28T04:36:50;5.18;;;4.47;;
7080;SDS011;3582;51.506;11.948;2023-02-28T04:39:19;6.00;;;3.72;;
7080;SDS011;3582;51.506;11.948;2023-02-28T04:41:45;9.00;;;4.13;;
7080;SDS011;3582;51.506;11.948;2023-02-28T04:44:11;5.85;;;4.35;;
7080;SDS011;3582;51.506;11.948;2023-02-28T04:46:38;6.75;;;3.92;;
7080;SDS011;3582;51.506;11.948;2023-02-28T04:49:04;9.23;;;4.97;;
7080;SDS011;3582;51.506;11.948;2023-02-28T04:51:30;10.47;;;5.53;;
7080;SDS011;3582;51.506;11.948;2023-02-28T04:53:56;20.63;;;6.70;;
7080;SDS011;3582;51.506;11.948;2023-02-28T04:56:22;8.70;;;4.45;;
7080;SDS011;3582;51.506;11.948;2023-02-28T04:58:48;9.77;;;4.37;;
7080;SDS011;3582;51.506;11.948;2023-02-28T05:01:17;11.80;;;6.20;;
7080;SDS011;3582;51.506;11.948;2023-02-28T05:03:43;5.22;;;4.70;;
7080;SDS011;3582;51.506;11.948;2023-02-28T05:06:10;9.07;;;4.70;;
7080;SDS011;3582;51.506;11.948;2023-02-28T05:08:36;12.00;;;5.22;;
7080;SDS011;3582;51.506;11.948;2023-02-28T05:11:02;7.30;;;4.70;;
7080;SDS011;3582;51.506;11.948;2023-02-28T05:13:29;12.40;;;5.22;;
7080;SDS011;3582;51.506;11.948;2023-02-28T05:15:56;10.73;;;5.47;;
7080;SDS011;3582;51.506;11.948;2023-02-28T05:18:22;12.40;;;6.30;;
7080;SDS011;3582;51.506;11.948;2023-02-28T05:20:47;17.07;;;10.87;;
7080;SDS011;3582;51.506;11.948;2023-02-28T05:23:14;12.50;;;4.68;;
7080;SDS011;3582;51.506;11.948;2023-02-28T05:25:40;4.30;;;3.90;;
7080;SDS011;3582;51.506;11.948;2023-02-28T05:28:07;5.85;;;5.18;;
7080;SDS011;3582;51.506;11.948;2023-02-28T05:30:33;5.97;;;3.95;;
7080;SDS011;3582;51.506;11.948;2023-02-28T05:32:59;8.47;;;4.53;;
7080;SDS011;3582;51.506;11.948;2023-02-28T05:35:25;13.60;;;4.65;;
7080;SDS011;3582;51.506;11.948;2023-02-28T05:37:51;15.10;;;4.15;;
7080;SDS011;3582;51.506;11.948;2023-02-28T05:40:18;14.25;;;4.70;;
7080;SDS011;3582;51.506;11.948;2023-02-28T05:42:45;10.13;;;4.50;;
7080;SDS011;3582;51.506;11.948;2023-02-28T05:45:11;8.98;;;4.50;;
7080;SDS011;3582;51.506;11.948;2023-02-28T05:47:37;4.77;;;4.37;;
7080;SDS011;3582;51.506;11.948;2023-02-28T05:50:03;7.73;;;4.43;;
7080;SDS011;3582;51.506;11.948;2023-02-28T05:52:30;5.47;;;4.05;;
7080;SDS011;3582;51.506;11.948;2023-02-28T05:54:56;12.30;;;5.13;;
7080;SDS011;3582;51.506;11.948;2023-02-28T05:57:22;8.03;;;5.00;;
7080;SDS011;3582;51.506;11.948;2023-02-28T05:59:48;10.50;;;4.35;;
7080;SDS011;3582;51.506;11.948;2023-02-28T06:02:14;7.23;;;4.70;;
7080;SDS011;3582;51.506;11.948;2023-02-28T06:04:41;18.42;;;7.80;;
7080;SDS011;3582;51.506;11.948;2023-02-28T06:07:07;36.85;;;9.48;;
7080;SDS011;3582;51.506;11.948;2023-02-28T06:09:33;13.55;;;5.28;;
7080;SDS011;3582;51.506;11.948;2023-02-28T06:12:00;10.15;;;4.72;;
7080;SDS011;3582;51.506;11.948;2023-02-28T06:14:28;8.68;;;5.15;;
7080;SDS011;3582;51.506;11.948;2023-02-28T06:16:56;9.18;;;5.07;;
7080;SDS011;3582;51.506;11.948;2023-02-28T06:19:22;12.18;;;4.95;;
7080;SDS011;3582;51.506;11.948;2023-02-28T06:21:50;12.73;;;5.13;;
7080;SDS011;3582;51.506;11.948;2023-02-28T06:24:17;12.55;;;4.75;;
7080;SDS011;3582;51.506;11.948;2023-02-28T06:26:43;9.30;;;5.55;;
7080;SDS011;3582;51.506;11.948;2023-02-28T06:29:09;16.17;;;5.57;;
7080;SDS011;3582;51.506;11.948;2023-02-28T06:31:35;18.70;;;7.07;;
7080;SDS011;3582;51.506;11.948;2023-02-28T06:34:01;15.55;;;6.47;;
7080;SDS011;3582;51.506;11.948;2023-02-28T06:36:27;10.13;;;6.10;;
7080;SDS011;3582;51.506;11.948;2023-02-28T06:38:53;11.38;;;6.15;;
7080;SDS011;3582;51.506;11.948;2023-02-28T06:41:24;20.40;;;7.03;;
7080;SDS011;3582;51.506;11.948;2023-02-28T06:43:50;12.52;;;6.30;;
7080;SDS011;3582;51.506;11.948;2023-02-28T06:46:16;10.82;;;6.20;;
7080;SDS011;3582;51.506;11.948;2023-02-28T06:48:43;14.63;;;6.00;;
7080;SDS011;3582;51.506;11.948;2023-02-28T06:51:10;10.63;;;5.65;;
7080;SDS011;3582;51.506;11.948;2023-02-28T06:53:38;8.85;;;6.90;;
7080;SDS011;3582;51.506;11.948;2023-02-28T06:56:04;17.67;;;6.60;;
7080;SDS011;3582;51.506;11.948;2023-02-28T06:58:31;11.95;;;5.88;;
7080;SDS011;3582;51.506;11.948;2023-02-28T07:00:57;13.20;;;6.03;;
7080;SDS011;3582;51.506;11.948;2023-02-28T07:03:23;9.40;;;5.90;;
7080;SDS011;3582;51.506;11.948;2023-02-28T07:05:49;13.00;;;7.10;;
7080;SDS011;3582;51.506;11.948;2023-02-28T07:08:15;29.13;;;8.23;;
7080;SDS011;3582;51.506;11.948;2023-02-28T07:10:41;6.90;;;5.20;;
7080;SDS011;3582;51.506;11.948;2023-02-28T07:13:08;12.87;;;6.57;;
7080;SDS011;3582;51.506;11.948;2023-02-28T07:15:35;16.02;;;8.88;;
7080;SDS011;3582;51.506;11.948;2023-02-28T07:18:00;25.20;;;6.65;;
7080;SDS011;3582;51.506;11.948;2023-02-28T07:20:27;18.33;;;6.30;;
7080;SDS011;3582;51.506;11.948;2023-02-28T07:22:52;7.40;;;5.80;;
7080;SDS011;3582;51.506;11.948;2023-02-28T07:25:22;15.65;;;5.95;;
7080;SDS011;3582;51.506;11.948;2023-02-28T07:27:48;26.02;;;9.73;;
7080;SDS011;3582;51.506;11.948;2023-02-28T07:30:14;14.95;;;6.30;;
7080;SDS011;3582;51.506;11.948;2023-02-28T07:32:40;8.73;;;5.45;;
7080;SDS011;3582;51.506;11.948;2023-02-28T07:35:06;12.60;;;6.13;;
7080;SDS011;3582;51.506;11.948;2023-02-28T07:37:33;11.10;;;6.07;;
7080;SDS011;3582;51.506;11.948;2023-02-28T07:40:04;8.07;;;5.38;;
7080;SDS011;3582;51.506;11.948;2023-02-28T07:42:34;11.45;;;5.70;;
7080;SDS011;3582;51.506;11.948;2023-02-28T07:45:00;17.55;;;7.20;;
7080;SDS011;3582;51.506;11.948;2023-02-28T07:47:28;28.30;;;10.60;;
7080;SDS011;3582;51.506;11.948;2023-02-28T07:49:54;17.40;;;7.32;;
7080;SDS011;3582;51.506;11.948;2023-02-28T07:52:20;22.80;;;7.60;;
7080;SDS011;3582;51.506;11.948;2023-02-28T07:54:48;17.52;;;6.57;;
7080;SDS011;3582;51.506;11.948;2023-02-28T07:57:14;7.43;;;4.50;;
7080;SDS011;3582;51.506;11.948;2023-02-28T07:59:40;6.53;;;4.47;;
7080;SDS011;3582;51.506;11.948;2023-02-28T08:02:06;17.00;;;7.40;;
7080;SDS011;3582;51.506;11.948;2023-02-28T08:04:32;29.67;;;8.35;;
7080;SDS011;3582;51.506;11.948;2023-02-28T08:06:58;4.40;;;4.00;;
7080;SDS011;3582;51.506;11.948;2023-02-28T08:09:24;9.27;;;5.40;;
7080;SDS011;3582;51.506;11.948;2023-02-28T08:11:50;9.87;;;4.70;;
7080;SDS011;3582;51.506;11.948;2023-02-28T08:14:16;17.33;;;7.67;;
7080;SDS011;3582;51.506;11.948;2023-02-28T08:16:42;10.60;;;5.57;;
7080;SDS011;3582;51.506;11.948;2023-02-28T08:19:08;6.73;;;5.90;;
7080;SDS011;3582;51.506;11.948;2023-02-28T08:21:34;6.90;;;4.63;;
7080;SDS011;3582;51.506;11.948;2023-02-28T08:24:00;7.70;;;5.03;;
7080;SDS011;3582;51.506;11.948;2023-02-28T08:26:26;8.02;;;4.97;;
7080;SDS011;3582;51.506;11.948;2023-02-28T08:28:52;6.43;;;5.57;;
7080;SDS011;3582;51.506;11.948;2023-02-28T08:31:18;13.20;;;6.33;;
7080;SDS011;3582;51.506;11.948;2023-02-28T08:33:44;11.52;;;5.93;;
7080;SDS011;3582;51.506;11.948;2023-02-28T08:36:12;15.43;;;6.53;;
7080;SDS011;3582;51.506;11.948;2023-02-28T08:38:38;7.82;;;5.45;;
7080;SDS011;3582;51.506;11.948;2023-02-28T08:41:05;21.70;;;6.85;;
7080;SDS011;3582;51.506;11.948;2023-02-28T08:43:32;7.82;;;5.57;;
7080;SDS011;3582;51.506;11.948;2023-02-28T08:45:58;15.55;;;5.18;;
7080;SDS011;3582;51.506;11.948;2023-02-28T08:48:24;9.27;;;6.13;;
7080;SDS011;3582;51.506;11.948;2023-02-28T08:53:22;16.42;;;6.20;;
7080;SDS011;3582;51.506;11.948;2023-02-28T08:55:55;14.90;;;6.47;;
7080;SDS011;3582;51.506;11.948;2023-02-28T08:58:21;10.77;;;6.47;;
7080;SDS011;3582;51.506;11.948;2023-02-28T09:00:47;14.83;;;7.23;;
7080;SDS011;3582;51.506;11.948;2023-02-28T09:03:12;9.30;;;7.23;;
7080;SDS011;3582;51.506;11.948;2023-02-28T09:05:38;13.00;;;5.37;;
7080;SDS011;3582;51.506;11.948;2023-02-28T09:08:04;7.57;;;5.03;;
7080;SDS011;3582;51.506;11.948;2023-02-28T09:10:31;12.63;;;5.95;;
7080;SDS011;3582;51.506;11.948;2023-02-28T09:12:57;9.60;;;5.60;;
7080;SDS011;3582;51.506;11.948;2023-02-28T09:15:23;10.83;;;6.77;;
7080;SDS011;3582;51.506;11.948;2023-02-28T09:17:49;5.87;;;4.87;;
7080;SDS011;3582;51.506;11.948;2023-02-28T09:20:15;12.30;;;5.80;;
7080;SDS011;3582;51.506;11.948;2023-02-28T09:22:41;7.27;;;5.47;;
7080;SDS011;3582;51.506;11.948;2023-02-28T09:25:07;12.57;;;6.20;;
7080;SDS011;3582;51.506;11.948;2023-02-28T09:27:32;8.10;;;6.17;;
7080;SDS011;3582;51.506;11.948;2023-02-28T09:29:58;16.40;;;8.90;;
7080;SDS011;3582;51.506;11.948;2023-02-28T09:32:24;10.27;;;6.10;;
7080;SDS011;3582;51.506;11.948;2023-02-28T09:34:50;6.60;;;5.77;;
7080;SDS011;3582;51.506;11.948;2023-02-28T09:37:16;6.57;;;5.57;;
7080;SDS011;3582;51.506;11.948;2023-02-28T09:39:42;13.90;;;7.93;;
7080;SDS011;3582;51.506;11.948;2023-02-28T09:42:12;11.00;;;6.00;;
7080;SDS011;3582;51.506;11.948;2023-02-28T09:44:41;4.93;;;4.40;;
7080;SDS011;3582;51.506;11.948;2023-02-28T09:47:18;13.27;;;5.03;;
7080;SDS011;3582;51.506;11.948;2023-02-28T09:49:47;14.35;;;6.47;;
7080;SDS011;3582;51.506;11.948;2023-02-28T09:52:14;5.80;;;4.63;;
7080;SDS011;3582;51.506;11.948;2023-02-28T09:54:42;10.95;;;6.00;;
7080;SDS011;3582;51.506;11.948;2023-02-28T09:57:11;13.75;;;6.38;;
7080;SDS011;3582;51.506;11.948;2023-02-28T10:02:41;5.93;;;5.15;;
7080;SDS011;3582;51.506;11.948;2023-02-28T10:05:14;8.95;;;5.38;;
7080;SDS011;3582;51.506;11.948;2023-02-28T10:07:46;4.72;;;3.20;;
7080;SDS011;3582;51.506;11.948;2023-02-28T10:12:43;5.00;;;4.45;;
7080;SDS011;3582;51.506;11.948;2023-02-28T10:15:13;3.55;;;3.25;;
7080;SDS011;3582;51.506;11.948;2023-02-28T10:17:40;3.55;;;3.25;;
7080;SDS011;3582;51.506;11.948;2023-02-28T10:20:11;3.70;;;3.40;;
7080;SDS011;3582;51.506;11.948;2023-02-28T10:22:45;19.45;;;4.70;;
7080;SDS011;3582;51.506;11.948;2023-02-28T10:25:24;3.08;;;2.88;;
7080;SDS011;3582;51.506;11.948;2023-02-28T10:27:56;3.63;;;3.13;;
7080;SDS011;3582;51.506;11.948;2023-02-28T10:30:32;4.43;;;4.03;;
7080;SDS011;3582;51.506;11.948;2023-02-28T10:35:45;4.75;;;4.30;;
7080;SDS011;3582;51.506;11.948;2023-02-28T10:38:15;7.10;;;4.37;;
7080;SDS011;3582;51.506;11.948;2023-02-28T10:40:41;8.05;;;5.35;;
7080;SDS011;3582;51.506;11.948;2023-02-28T10:43:17;7.60;;;5.57;;
7080;SDS011;3582;51.506;11.948;2023-02-28T10:48:48;6.38;;;5.25;;
7080;SDS011;3582;51.506;11.948;2023-02-28T10:51:16;5.88;;;4.80;;
7080;SDS011;3582;51.506;11.948;2023-02-28T11:03:58;6.30;;;5.65;;
7080;SDS011;3582;51.506;11.948;2023-02-28T11:06:29;8.00;;;4.60;;
7080;SDS011;3582;51.506;11.948;2023-02-28T11:08:56;6.32;;;4.93;;
7080;SDS011;3582;51.506;11.948;2023-02-28T11:11:23;12.30;;;5.55;;
7080;SDS011;3582;51.506;11.948;2023-02-28T11:13:52;11.80;;;6.53;;
7080;SDS011;3582;51.506;11.948;2023-02-28T11:16:19;6.53;;;5.13;;
7080;SDS011;3582;51.506;11.948;2023-02-28T11:18:49;9.25;;;5.13;;
7080;SDS011;3582;51.506;11.948;2023-02-28T11:21:20;9.15;;;6.03;;
7080;SDS011;3582;51.506;11.948;2023-02-28T11:23:46;6.03;;;4.60;;
7080;SDS011;3582;51.506;11.948;2023-02-28T11:26:14;5.95;;;4.55;;
7080;SDS011;3582;51.506;11.948;2023-02-28T11:28:40;8.70;;;5.50;;
7080;SDS011;3582;51.506;11.948;2023-02-28T11:33:57;7.00;;;6.28;;
7080;SDS011;3582;51.506;11.948;2023-02-28T11:36:27;7.30;;;5.78;;
7080;SDS011;3582;51.506;11.948;2023-02-28T11:38:54;12.52;;;7.53;;
7080;SDS011;3582;51.506;11.948;2023-02-28T11:44:05;10.70;;;6.28;;
7080;SDS011;3582;51.506;11.948;2023-02-28T11:46:51;6.82;;;5.93;;
7080;SDS011;3582;51.506;11.948;2023-02-28T11:49:35;13.00;;;6.15;;
7080;SDS011;3582;51.506;11.948;2023-02-28T11:55:04;7.90;;;6.35;;
7080;SDS011;3582;51.506;11.948;2023-02-28T12:00:14;9.05;;;6.82;;
7080;SDS011;3582;51.506;11.948;2023-02-28T12:05:24;8.50;;;5.85;;
7080;SDS011;3582;51.506;11.948;2023-02-28T12:10:37;14.05;;;7.85;;
7080;SDS011;3582;51.506;11.948;2023-02-28T12:13:10;15.98;;;6.68;;
7080;SDS011;3582;51.506;11.948;2023-02-28T12:15:57;7.85;;;6.03;;
7080;SDS011;3582;51.506;11.948;2023-02-28T12:20:54;6.28;;;5.68;;
7080;SDS011;3582;51.506;11.948;2023-02-28T12:26:09;33.80;;;12.20;;
7080;SDS011;3582;51.506;11.948;2023-02-28T12:28:41;8.40;;;6.03;;
7080;SDS011;3582;51.506;11.948;2023-02-28T12:31:09;8.20;;;6.80;;
7080;SDS011;3582;51.506;11.948;2023-02-28T12:33:38;6.88;;;6.28;;
7080;SDS011;3582;51.506;11.948;2023-02-28T12:36:09;13.75;;;7.95;;
7080;SDS011;3582;51.506;11.948;2023-02-28T12:38:52;7.50;;;6.60;;
7080;SDS011;3582;51.506;11.948;2023-02-28T12:41:22;7.15;;;6.40;;
7080;SDS011;3582;51.506;11.948;2023-02-28T12:43:54;10.57;;;7.60;;
7080;SDS011;3582;51.506;11.948;2023-02-28T12:46:23;7.07;;;6.35;;
7080;SDS011;3582;51.506;11.948;2023-02-28T12:48:54;9.50;;;7.13;;
7080;SDS011;3582;51.506;11.948;2023-02-28T12:51:21;9.23;;;6.65;;
7080;SDS011;3582;51.506;11.948;2023-02-28T12:53:59;6.45;;;5.78;;
7080;SDS011;3582;51.506;11.948;2023-02-28T12:56:33;25.27;;;10.55;;
7080;SDS011;3582;51.506;11.948;2023-02-28T13:01:49;8.73;;;7.22;;
7080;SDS011;3582;51.506;11.948;2023-02-28T13:07:16;9.57;;;6.65;;
7080;SDS011;3582;51.506;11.948;2023-02-28T13:09:53;7.97;;;7.20;;
7080;SDS011;3582;51.506;11.948;2023-02-28T13:12:20;7.38;;;6.68;;
7080;SDS011;3582;51.506;11.948;2023-02-28T13:14:47;6.63;;;6.13;;
7080;SDS011;3582;51.506;11.948;2023-02-28T13:17:19;8.40;;;6.43;;
7080;SDS011;3582;51.506;11.948;2023-02-28T13:22:19;6.88;;;6.28;;
7080;SDS011;3582;51.506;11.948;2023-02-28T13:24:46;29.10;;;9.82;;
7080;SDS011;3582;51.506;11.948;2023-02-28T13:29:42;15.02;;;9.00;;
7080;SDS011;3582;51.506;11.948;2023-02-28T13:34:41;7.30;;;6.55;;
7080;SDS011;3582;51.506;11.948;2023-02-28T13:39:46;11.02;;;7.25;;
7080;SDS011;3582;51.506;11.948;2023-02-28T13:47:30;12.10;;;6.68;;
7080;SDS011;3582;51.506;11.948;2023-02-28T13:52:44;7.10;;;6.40;;
7080;SDS011;3582;51.506;11.948;2023-02-28T13:55:23;8.32;;;7.53;;
7080;SDS011;3582;51.506;11.948;2023-02-28T13:57:54;16.63;;;8.07;;
7080;SDS011;3582;51.506;11.948;2023-02-28T14:03:07;11.40;;;7.65;;
7080;SDS011;3582;51.506;11.948;2023-02-28T14:05:36;11.45;;;8.45;;
7080;SDS011;3582;51.506;11.948;2023-02-28T14:08:04;8.18;;;7.40;;
7080;SDS011;3582;51.506;11.948;2023-02-28T14:10:34;8.30;;;7.50;;
7080;SDS011;3582;51.506;11.948;2023-02-28T14:13:13;17.23;;;8.60;;
7080;SDS011;3582;51.506;11.948;2023-02-28T14:15:40;11.85;;;7.13;;
7080;SDS011;3582;51.506;11.948;2023-02-28T14:18:18;13.63;;;7.72;;
7080;SDS011;3582;51.506;11.948;2023-02-28T14:20:45;9.80;;;6.80;;
7080;SDS011;3582;51.506;11.948;2023-02-28T14:28:42;10.18;;;7.30;;
7080;SDS011;3582;51.506;11.948;2023-02-28T14:31:15;8.90;;;6.70;;
7080;SDS011;3582;51.506;11.948;2023-02-28T14:33:47;6.75;;;5.57;;
7080;SDS011;3582;51.506;11.948;2023-02-28T14:36:27;8.85;;;7.50;;
7080;SDS011;3582;51.506;11.948;2023-02-28T14:38:57;19.15;;;9.60;;
7080;SDS011;3582;51.506;11.948;2023-02-28T14:41:30;14.20;;;8.23;;
7080;SDS011;3582;51.506;11.948;2023-02-28T14:43:58;7.45;;;6.43;;
7080;SDS011;3582;51.506;11.948;2023-02-28T14:46:26;6.20;;;5.60;;
7080;SDS011;3582;51.506;11.948;2023-02-28T14:48:54;21.95;;;8.75;;
7080;SDS011;3582;51.506;11.948;2023-02-28T14:51:21;8.70;;;6.63;;
7080;SDS011;3582;51.506;11.948;2023-02-28T14:53:48;10.57;;;6.30;;
7080;SDS011;3582;51.506;11.948;2023-02-28T14:56:23;11.20;;;7.43;;
7080;SDS011;3582;51.506;11.948;2023-02-28T14:58:53;14.35;;;5.88;;
7080;SDS011;3582;51.506;11.948;2023-02-28T15:01:20;15.48;;;7.30;;
7080;SDS011;3582;51.506;11.948;2023-02-28T15:03:47;10.25;;;5.65;;
7080;SDS011;3582;51.506;11.948;2023-02-28T15:08:39;14.40;;;7.70;;
7080;SDS011;3582;51.506;11.948;2023-02-28T15:11:06;20.77;;;8.80;;
7080;SDS011;3582;51.506;11.948;2023-02-28T15:13:44;11.50;;;6.95;;
7080;SDS011;3582;51.506;11.948;2023-02-28T15:16:11;19.13;;;8.75;;
7080;SDS011;3582;51.506;11.948;2023-02-28T15:21:11;10.57;;;7.10;;
7080;SDS011;3582;51.506;11.948;2023-02-28T15:23:38;8.85;;;7.90;;
7080;SDS011;3582;51.506;11.948;2023-02-28T15:26:05;12.13;;;9.00;;
7080;SDS011;3582;51.506;11.948;2023-02-28T15:28:31;10.82;;;6.50;;
7080;SDS011;3582;51.506;11.948;2023-02-28T15:30:59;9.70;;;7.10;;
7080;SDS011;3582;51.506;11.948;2023-02-28T15:33:26;12.30;;;7.40;;
7080;SDS011;3582;51.506;11.948;2023-02-28T15:38:37;10.82;;;8.07;;
7080;SDS011;3582;51.506;11.948;2023-02-28T15:41:03;9.23;;;6.83;;
7080;SDS011;3582;51.506;11.948;2023-02-28T15:43:34;13.80;;;7.45;;
7080;SDS011;3582;51.506;11.948;2023-02-28T15:46:01;13.98;;;8.18;;
7080;SDS011;3582;51.506;11.948;2023-02-28T15:48:32;10.88;;;7.25;;
7080;SDS011;3582;51.506;11.948;2023-02-28T15:51:05;12.95;;;7.68;;
7080;SDS011;3582;51.506;11.948;2023-02-28T15:53:33;14.57;;;8.00;;
7080;SDS011;3582;51.506;11.948;2023-02-28T15:56:02;11.45;;;7.65;;
7080;SDS011;3582;51.506;11.948;2023-02-28T15:58:28;10.80;;;7.60;;
7080;SDS011;3582;51.506;11.948;2023-02-28T16:01:03;11.48;;;7.53;;
7080;SDS011;3582;51.506;11.948;2023-02-28T16:04:04;10.15;;;6.10;;
7080;SDS011;3582;51.506;11.948;2023-02-28T16:09:00;14.82;;;8.25;;
7080;SDS011;3582;51.506;11.948;2023-02-28T16:11:26;8.55;;;5.80;;
7080;SDS011;3582;51.506;11.948;2023-02-28T16:13:53;11.77;;;7.95;;
7080;SDS011;3582;51.506;11.948;2023-02-28T16:16:20;12.05;;;6.10;;
7080;SDS011;3582;51.506;11.948;2023-02-28T16:18:46;10.95;;;7.10;;
7080;SDS011;3582;51.506;11.948;2023-02-28T16:21:12;13.88;;;8.18;;
7080;SDS011;3582;51.506;11.948;2023-02-28T16:23:38;11.20;;;6.10;;
7080;SDS011;3582;51.506;11.948;2023-02-28T16:26:04;7.47;;;6.77;;
7080;SDS011;3582;51.506;11.948;2023-02-28T16:28:31;10.30;;;6.90;;
7080;SDS011;3582;51.506;11.948;2023-02-28T16:31:01;8.90;;;7.18;;
7080;SDS011;3582;51.506;11.948;2023-02-28T16:33:28;10.25;;;7.40;;
7080;SDS011;3582;51.506;11.948;2023-02-28T16:35:54;20.00;;;7.82;;
7080;SDS011;3582;51.506;11.948;2023-02-28T16:38:20;20.57;;;9.07;;
7080;SDS011;3582;51.506;11.948;2023-02-28T16:40:48;8.65;;;7.43;;
7080;SDS011;3582;51.506;11.948;2023-02-28T16:43:15;12.23;;;7.85;;
7080;SDS011;3582;51.506;11.948;2023-02-28T16:45:42;9.93;;;8.05;;
7080;SDS011;3582;51.506;11.948;2023-02-28T16:48:10;13.23;;;9.70;;
7080;SDS011;3582;51.506;11.948;2023-02-28T16:50:38;9.68;;;8.70;;
7080;SDS011;3582;51.506;11.948;2023-02-28T16:53:04;10.47;;;9.37;;